Time;durP1;ratioP1;P1;durP2;ratioP2;P2;SDS_P1;SDS_P2;PMS_P1;PMS_P2;Temp;Humidity;BMP_temperature;BMP_pressure;BME280_temperature;BME280_humidity;BME280_pressure;Samples;Min_cycle;Max_cycle;Signal;HPM_P1;HPM_P2
2021/03/20 00:01:08;;;;;;;0.40;0.40;;;0.10;99.90;;;;;;4398796;32;20058;-56
2021/03/20 00:03:34;;;;;;;0.40;0.40;;;0.20;99.90;;;;;;4385812;32;20074;-56
2021/03/20 00:06:02;;;;;;;0.40;0.40;;;0.30;99.90;;;;;;4400525;32;20062;-55
2021/03/20 00:08:27;;;;;;;0.30;0.30;;;0.30;99.90;;;;;;4412520;32;20130;-55
2021/03/20 00:10:54;;;;;;;0.40;0.40;;;0.40;99.90;;;;;;4398037;32;20058;-56
2021/03/20 00:13:21;;;;;;;0.30;0.30;;;0.40;99.90;;;;;;4399211;32;20062;-54
2021/03/20 00:15:47;;;;;;;0.40;0.40;;;0.50;99.90;;;;;;4386748;32;20149;-56
2021/03/20 00:18:13;;;;;;;0.95;0.77;;;0.40;99.90;;;;;;4386461;32;20506;-54
2021/03/20 00:20:42;;;;;;;0.82;0.77;;;0.40;99.90;;;;;;4413266;32;20070;-53
2021/03/20 00:23:09;;;;;;;0.30;0.30;;;0.30;99.90;;;;;;4400122;32;20185;-56
2021/03/20 00:25:35;;;;;;;0.40;0.40;;;0.30;99.90;;;;;;4413911;32;20098;-51
2021/03/20 00:28:02;;;;;;;0.30;0.30;;;0.30;99.90;;;;;;4410699;32;20065;-54
2021/03/20 00:30:28;;;;;;;0.45;0.45;;;0.30;99.90;;;;;;4400200;32;20074;-55
2021/03/20 00:32:54;;;;;;;0.60;0.60;;;0.30;99.90;;;;;;4413248;32;20170;-52
2021/03/20 00:35:22;;;;;;;0.57;0.50;;;0.30;99.90;;;;;;4413899;32;20490;-54
2021/03/20 00:37:48;;;;;;;0.65;0.65;;;0.30;99.90;;;;;;4385777;32;20085;-52
2021/03/20 00:40:17;;;;;;;0.98;0.88;;;0.30;99.90;;;;;;4399469;32;20066;-55
2021/03/20 00:42:43;;;;;;;0.82;0.80;;;0.20;99.90;;;;;;4398466;32;20058;-54
2021/03/20 00:45:11;;;;;;;0.40;0.40;;;0.20;99.90;;;;;;4412548;32;20073;-52
2021/03/20 00:47:37;;;;;;;0.50;0.50;;;0.20;99.90;;;;;;4407171;32;20629;-55
2021/03/20 00:50:05;;;;;;;0.60;0.60;;;0.30;99.90;;;;;;4411948;32;20476;-55
2021/03/20 00:52:31;;;;;;;0.40;0.40;;;0.20;99.90;;;;;;4397729;32;20448;-55
2021/03/20 00:54:56;;;;;;;0.65;0.65;;;0.30;99.90;;;;;;4412817;32;20070;-56
2021/03/20 00:57:21;;;;;;;0.40;0.40;;;0.30;99.90;;;;;;4411359;32;20054;-57
2021/03/20 00:59:47;;;;;;;0.65;0.55;;;0.20;99.90;;;;;;4411436;32;20477;-57
2021/03/20 01:02:13;;;;;;;0.50;0.50;;;0.30;99.90;;;;;;4413977;32;20058;-57
2021/03/20 01:04:39;;;;;;;0.52;0.52;;;0.30;99.90;;;;;;4413463;32;20078;-55
2021/03/20 01:07:04;;;;;;;0.32;0.32;;;0.30;99.90;;;;;;4413269;32;20070;-55
2021/03/20 01:09:32;;;;;;;0.50;0.50;;;0.30;99.90;;;;;;4411806;32;20078;-57
2021/03/20 01:11:57;;;;;;;0.45;0.45;;;0.30;99.90;;;;;;4398823;32;20070;-53
2021/03/20 01:14:23;;;;;;;0.30;0.30;;;0.40;99.90;;;;;;4412467;32;20058;-56
2021/03/20 01:16:48;;;;;;;0.45;0.45;;;0.40;99.90;;;;;;4413019;32;20062;-55
2021/03/20 01:19:14;;;;;;;0.30;0.30;;;0.30;99.90;;;;;;4414135;32;20144;-55
2021/03/20 01:21:39;;;;;;;0.30;0.30;;;0.20;99.90;;;;;;4412549;32;20070;-56
2021/03/20 01:24:05;;;;;;;0.30;0.30;;;0.20;99.90;;;;;;4412317;32;20108;-53
2021/03/20 01:26:31;;;;;;;0.55;0.55;;;0.20;99.90;;;;;;4397906;32;20050;-56
2021/03/20 01:28:56;;;;;;;0.37;0.37;;;0.20;99.90;;;;;;4398349;32;20511;-55
2021/03/20 01:31:22;;;;;;;0.40;0.40;;;0.30;99.90;;;;;;4411355;32;20058;-55
2021/03/20 01:33:47;;;;;;;0.40;0.40;;;0.40;99.90;;;;;;4397502;32;20093;-55
2021/03/20 01:36:13;;;;;;;1.90;1.25;;;0.50;99.90;;;;;;4411054;32;20057;-56
2021/03/20 01:38:38;;;;;;;0.40;0.40;;;0.30;99.90;;;;;;4384718;32;20069;-54
2021/03/20 01:41:08;;;;;;;2.33;1.30;;;0.50;99.90;;;;;;4412817;32;20053;-57
2021/03/20 01:43:35;;;;;;;0.30;0.30;;;0.50;99.90;;;;;;4395287;32;20065;-54
2021/03/20 01:46:41;;;;;;;0.50;0.50;;;0.50;99.90;;;;;;4398066;32;20069;-53
2021/03/20 01:49:28;;;;;;;4.12;1.12;;;0.50;99.90;;;;;;4392340;32;20538;-52
2021/03/20 01:52:15;;;;;;;0.30;0.30;;;0.40;99.90;;;;;;4388773;32;20078;-55
2021/03/20 01:54:48;;;;;;;0.30;0.30;;;0.40;99.90;;;;;;4384138;32;20420;-56
2021/03/20 01:57:19;;;;;;;0.50;0.50;;;0.50;99.90;;;;;;4395187;32;20134;-55
2021/03/20 01:59:46;;;;;;;0.40;0.40;;;0.50;99.90;;;;;;4382869;32;20153;-56
2021/03/20 02:02:12;;;;;;;0.62;0.62;;;0.50;99.90;;;;;;4371119;32;20539;-56
2021/03/20 02:04:37;;;;;;;1.58;0.50;;;0.50;99.90;;;;;;4396882;32;20057;-57
2021/03/20 02:07:03;;;;;;;0.40;0.40;;;0.50;99.90;;;;;;4407509;32;20058;-56
2021/03/20 02:09:29;;;;;;;0.30;0.30;;;0.50;99.90;;;;;;4412298;32;20467;-55
2021/03/20 02:12:19;;;;;;;0.40;0.40;;;0.50;99.90;;;;;;4412349;32;20073;-56
2021/03/20 02:15:23;;;;;;;0.40;0.40;;;0.50;99.90;;;;;;4388530;32;20245;-56
2021/03/20 02:17:54;;;;;;;0.80;0.80;;;0.40;99.90;;;;;;4389860;32;20454;-53
2021/03/20 02:20:36;;;;;;;0.40;0.40;;;0.40;99.90;;;;;;4401318;32;20125;-52
2021/03/20 02:23:27;;;;;;;0.40;0.40;;;0.40;99.90;;;;;;4410734;32;20074;-56
2021/03/20 02:26:15;;;;;;;2.85;1.48;;;0.30;99.90;;;;;;4416385;32;20077;-53
2021/03/20 02:29:20;;;;;;;0.50;0.45;;;0.30;99.90;;;;;;4405655;32;20524;-52
2021/03/20 02:31:55;;;;;;;1.65;1.00;;;0.40;99.90;;;;;;4388414;32;20144;-56
2021/03/20 02:34:30;;;;;;;0.40;0.40;;;0.40;99.90;;;;;;4402674;32;20345;-55
2021/03/20 02:37:08;;;;;;;0.40;0.40;;;0.50;99.90;;;;;;4416383;32;20070;-54
2021/03/20 02:39:44;;;;;;;0.50;0.50;;;0.40;99.90;;;;;;4403214;32;20074;-56
2021/03/20 02:42:21;;;;;;;1.20;1.10;;;0.30;99.90;;;;;;4416914;32;20065;-56
2021/03/20 02:45:11;;;;;;;0.30;0.30;;;0.30;99.90;;;;;;4415519;32;20066;-57
2021/03/20 02:47:46;;;;;;;0.50;0.50;;;0.20;99.90;;;;;;4416405;32;20503;-56
2021/03/20 02:50:19;;;;;;;0.40;0.40;;;0.20;99.90;;;;;;4414817;32;20125;-56
2021/03/20 02:52:54;;;;;;;0.30;0.30;;;0.30;99.90;;;;;;4389998;32;20475;-57
2021/03/20 02:55:43;;;;;;;0.40;0.40;;;0.30;99.90;;;;;;4391018;32;20058;-57
2021/03/20 02:58:13;;;;;;;0.40;0.40;;;0.30;99.90;;;;;;4392413;32;20478;-56
2021/03/20 03:00:42;;;;;;;0.62;0.62;;;0.30;99.90;;;;;;4389136;32;20510;-53
2021/03/20 03:03:10;;;;;;;0.30;0.30;;;0.30;99.90;;;;;;4401658;32;20065;-56
2021/03/20 03:05:42;;;;;;;0.32;0.32;;;0.30;99.90;;;;;;4391180;32;20058;-53
2021/03/20 03:08:14;;;;;;;0.60;0.60;;;0.30;99.90;;;;;;4401523;32;20420;-56
2021/03/20 03:10:47;;;;;;;0.70;0.70;;;0.30;99.90;;;;;;4402646;32;20134;-53
2021/03/20 03:13:24;;;;;;;0.32;0.32;;;0.40;99.90;;;;;;4403130;32;20113;-53
2021/03/20 03:16:17;;;;;;;0.50;0.50;;;0.40;99.90;;;;;;4401911;32;20737;-52
2021/03/20 03:18:47;;;;;;;0.50;0.50;;;0.30;99.90;;;;;;4415304;32;20455;-57
2021/03/20 03:21:15;;;;;;;0.50;0.50;;;0.30;99.90;;;;;;4412642;32;20113;-57
2021/03/20 03:23:42;;;;;;;0.52;0.52;;;0.30;99.90;;;;;;4413478;32;20061;-54
2021/03/20 03:26:12;;;;;;;0.77;0.77;;;0.30;99.90;;;;;;4399884;32;20571;-54
2021/03/20 03:28:39;;;;;;;0.57;0.57;;;0.20;99.90;;;;;;4398213;32;20367;-52
2021/03/20 03:31:13;;;;;;;0.40;0.40;;;0.30;99.90;;;;;;4385901;32;20079;-55
2021/03/20 03:33:43;;;;;;;2.17;1.00;;;0.30;99.90;;;;;;4413655;32;20069;-52
2021/03/20 03:36:12;;;;;;;0.60;0.60;;;0.20;99.90;;;;;;4399973;32;21177;-57
2021/03/20 03:38:46;;;;;;;0.40;0.40;;;0.30;99.90;;;;;;4399740;32;20077;-57
2021/03/20 03:41:15;;;;;;;0.30;0.30;;;0.30;99.90;;;;;;4412347;32;20078;-57
2021/03/20 03:43:43;;;;;;;0.50;0.50;;;0.30;99.90;;;;;;4407639;32;20066;-57
2021/03/20 03:46:10;;;;;;;0.40;0.40;;;0.30;99.90;;;;;;4386796;32;20050;-56
2021/03/20 03:48:36;;;;;;;0.35;0.35;;;0.20;99.90;;;;;;4397688;32;20439;-57
2021/03/20 03:51:15;;;;;;;0.65;0.65;;;0.20;99.90;;;;;;4408379;32;20045;-57
2021/03/20 03:53:41;;;;;;;0.70;0.70;;;0.20;99.90;;;;;;4387153;32;20083;-56
2021/03/20 03:56:36;;;;;;;0.40;0.40;;;0.30;99.90;;;;;;4397571;32;20049;-56
2021/03/20 03:59:22;;;;;;;0.40;0.40;;;0.40;99.90;;;;;;4405458;32;20061;-56
2021/03/20 04:02:16;;;;;;;0.30;0.30;;;0.40;99.90;;;;;;4391312;32;20077;-54
2021/03/20 04:05:22;;;;;;;0.43;0.43;;;0.30;99.90;;;;;;4386450;32;20102;-52
2021/03/20 04:08:14;;;;;;;0.40;0.40;;;0.40;99.90;;;;;;4386780;32;20066;-54
2021/03/20 04:10:52;;;;;;;0.40;0.40;;;0.40;99.90;;;;;;4397569;32;20054;-57
2021/03/20 04:13:51;;;;;;;0.40;0.40;;;0.30;99.90;;;;;;4412803;32;20070;-57
2021/03/20 04:16:20;;;;;;;0.30;0.30;;;0.30;99.90;;;;;;4403404;32;20090;-55
2021/03/20 04:19:06;;;;;;;1.10;0.98;;;0.30;99.90;;;;;;4400158;32;20201;-54
2021/03/20 04:21:47;;;;;;;0.62;0.62;;;0.30;99.90;;;;;;4397957;32;20054;-57
2021/03/20 04:24:29;;;;;;;0.50;0.50;;;0.30;99.90;;;;;;4400081;32;20459;-55
2021/03/20 04:27:00;;;;;;;0.30;0.30;;;0.30;99.90;;;;;;4399827;32;20146;-57
2021/03/20 04:29:47;;;;;;;0.40;0.40;;;0.20;99.90;;;;;;4399724;32;20086;-56
2021/03/20 04:32:22;;;;;;;0.50;0.50;;;0.20;99.90;;;;;;4411800;32;20104;-57
2021/03/20 04:34:55;;;;;;;0.40;0.40;;;0.20;99.90;;;;;;4413399;32;20058;-58
2021/03/20 04:37:24;;;;;;;0.82;0.82;;;0.10;99.90;;;;;;4412778;32;20140;-55
2021/03/20 04:39:53;;;;;;;0.40;0.40;;;0.10;99.90;;;;;;4412413;32;20049;-55
2021/03/20 04:42:24;;;;;;;0.40;0.40;;;0.10;99.90;;;;;;4384805;32;20070;-57
2021/03/20 04:44:50;;;;;;;0.40;0.40;;;0.20;99.90;;;;;;4398175;32;20058;-57
2021/03/20 04:47:21;;;;;;;0.40;0.40;;;0.10;99.90;;;;;;4412310;32;20172;-57
2021/03/20 04:49:52;;;;;;;0.37;0.37;;;0.20;99.90;;;;;;4399163;32;20125;-57
2021/03/20 04:52:28;;;;;;;0.40;0.40;;;0.20;99.90;;;;;;4413135;32;20527;-57
2021/03/20 04:54:55;;;;;;;0.40;0.40;;;0.30;99.90;;;;;;4387546;32;20113;-53
2021/03/20 04:58:01;;;;;;;0.45;0.45;;;0.30;99.90;;;;;;4412482;32;20081;-54
2021/03/20 05:00:34;;;;;;;0.30;0.30;;;0.20;99.90;;;;;;4392486;32;20085;-56
2021/03/20 05:03:13;;;;;;;0.40;0.40;;;0.20;99.90;;;;;;4400119;32;20066;-57
2021/03/20 05:05:46;;;;;;;0.40;0.40;;;0.20;99.90;;;;;;4412014;32;20066;-56
2021/03/20 05:08:17;;;;;;;0.50;0.50;;;0.20;99.90;;;;;;4398401;32;20122;-56
2021/03/20 05:10:45;;;;;;;;;;;0.10;99.90;;;;;;4395905;32;20130;-56
2021/03/20 05:13:26;;;;;;;0.40;0.40;;;0.20;99.90;;;;;;4394842;32;19949;-58
2021/03/20 05:16:00;;;;;;;0.40;0.40;;;0.20;99.90;;;;;;4411897;32;20058;-57
2021/03/20 05:18:25;;;;;;;0.43;0.43;;;0.20;99.90;;;;;;4387257;32;20519;-56
2021/03/20 05:20:51;;;;;;;0.30;0.30;;;0.20;99.90;;;;;;4399182;32;20142;-57
2021/03/20 05:23:16;;;;;;;0.40;0.40;;;0.20;99.90;;;;;;4412970;32;20731;-56
2021/03/20 05:25:42;;;;;;;0.40;0.40;;;0.10;99.90;;;;;;4411884;32;20513;-57
2021/03/20 05:28:07;;;;;;;0.80;0.80;;;0.30;99.90;;;;;;4412095;32;20054;-57
2021/03/20 05:30:37;;;;;;;0.37;0.37;;;0.40;99.90;;;;;;4412255;32;20057;-58
2021/03/20 05:33:02;;;;;;;0.40;0.40;;;0.30;99.90;;;;;;4412052;32;20062;-55
2021/03/20 05:35:28;;;;;;;0.30;0.30;;;0.40;99.90;;;;;;4412966;32;20437;-52
2021/03/20 05:37:53;;;;;;;0.95;0.93;;;0.30;99.90;;;;;;4412048;32;20066;-53
2021/03/20 05:40:27;;;;;;;0.37;0.37;;;0.30;99.90;;;;;;4396357;32;20078;-57
2021/03/20 05:43:11;;;;;;;0.40;0.40;;;0.30;99.90;;;;;;4393244;32;20078;-56
2021/03/20 05:45:45;;;;;;;0.30;0.30;;;0.30;99.90;;;;;;4394213;32;20062;-56
2021/03/20 05:48:22;;;;;;;0.30;0.30;;;0.20;99.90;;;;;;4393144;32;20078;-56
2021/03/20 05:51:12;;;;;;;0.30;0.30;;;0.30;99.90;;;;;;4386019;32;20083;-56
2021/03/20 05:53:47;;;;;;;0.60;0.60;;;0.40;99.90;;;;;;4387933;32;20201;-54
2021/03/20 05:56:30;;;;;;;0.37;0.37;;;0.30;99.90;;;;;;4411000;32;20074;-55
2021/03/20 05:59:03;;;;;;;0.35;0.35;;;0.40;99.90;;;;;;4398738;32;20077;-55
2021/03/20 06:01:54;;;;;;;0.40;0.40;;;0.50;99.90;;;;;;4412262;32;20058;-54
2021/03/20 06:04:39;;;;;;;0.30;0.30;;;0.50;99.90;;;;;;4388854;32;20121;-52
2021/03/20 06:07:27;;;;;;;1.98;1.15;;;0.50;99.90;;;;;;4399183;32;20566;-55
2021/03/20 06:10:10;;;;;;;0.30;0.30;;;0.50;99.90;;;;;;4399983;32;20248;-57
2021/03/20 06:13:03;;;;;;;0.70;0.70;;;0.60;99.90;;;;;;4412723;32;20062;-57
2021/03/20 06:16:08;;;;;;;0.30;0.30;;;0.60;99.90;;;;;;4388166;32;20054;-58
2021/03/20 06:19:09;;;;;;;0.30;0.30;;;0.60;99.90;;;;;;4391766;32;20062;-55
2021/03/20 06:21:44;;;;;;;0.40;0.40;;;0.70;99.90;;;;;;4402634;32;20061;-57
2021/03/20 06:24:31;;;;;;;3.40;0.77;;;0.80;99.90;;;;;;4412727;32;20078;-57
2021/03/20 06:26:59;;;;;;;0.30;0.30;;;0.80;99.90;;;;;;4395206;32;20061;-56
2021/03/20 06:29:30;;;;;;;0.30;0.30;;;0.90;99.90;;;;;;4399079;32;20070;-57
2021/03/20 06:32:03;;;;;;;0.45;0.45;;;0.90;99.90;;;;;;4411665;32;20105;-58
2021/03/20 06:34:37;;;;;;;0.40;0.40;;;1.00;99.90;;;;;;4411665;32;20066;-56
2021/03/20 06:37:15;;;;;;;0.60;0.60;;;0.90;99.90;;;;;;4397487;32;20070;-53
2021/03/20 06:39:47;;;;;;;0.40;0.40;;;0.90;99.90;;;;;;4389494;32;20461;-54
2021/03/20 06:42:21;;;;;;;0.47;0.47;;;1.00;99.90;;;;;;4402088;32;20066;-56
2021/03/20 06:44:49;;;;;;;0.40;0.40;;;0.90;99.90;;;;;;4398973;32;20062;-56
2021/03/20 06:47:20;;;;;;;0.77;0.77;;;1.00;99.90;;;;;;4385200;32;20066;-57
2021/03/20 06:50:07;;;;;;;0.40;0.40;;;1.10;99.90;;;;;;4412219;32;20054;-58
2021/03/20 06:52:35;;;;;;;0.40;0.40;;;1.20;99.90;;;;;;4411102;32;20077;-55
2021/03/20 06:55:06;;;;;;;0.40;0.40;;;1.20;99.90;;;;;;4414164;32;20579;-58
2021/03/20 06:57:31;;;;;;;1.87;1.15;;;1.20;99.90;;;;;;4400039;32;20514;-54
2021/03/20 07:00:14;;;;;;;0.82;0.82;;;1.30;99.90;;;;;;4401030;32;20061;-55
2021/03/20 07:03:06;;;;;;;0.35;0.35;;;1.30;99.90;;;;;;4397049;32;20070;-56
2021/03/20 07:05:46;;;;;;;0.50;0.50;;;1.40;99.90;;;;;;4403547;32;20077;-57
2021/03/20 07:08:37;;;;;;;0.40;0.40;;;1.40;99.90;;;;;;4387533;32;20487;-54
2021/03/20 07:11:03;;;;;;;;;;;1.40;99.90;;;;;;4389071;32;20062;-54
2021/03/20 07:13:43;;;;;;;0.40;0.40;;;1.40;99.90;;;;;;4411702;32;19953;-55
2021/03/20 07:16:15;;;;;;;0.30;0.30;;;1.50;99.90;;;;;;4403451;32;20050;-56
2021/03/20 07:18:53;;;;;;;0.68;0.68;;;1.50;99.90;;;;;;4388888;32;20141;-53
2021/03/20 07:21:26;;;;;;;0.40;0.40;;;1.50;99.90;;;;;;4400343;32;20054;-54
2021/03/20 07:23:54;;;;;;;1.77;1.27;;;1.60;99.90;;;;;;4399596;32;20136;-52
2021/03/20 07:26:20;;;;;;;0.50;0.50;;;1.60;99.90;;;;;;4412977;32;20514;-57
2021/03/20 07:28:51;;;;;;;0.40;0.40;;;1.50;99.90;;;;;;4415362;32;20057;-55
2021/03/20 07:31:18;;;;;;;0.40;0.40;;;1.50;99.90;;;;;;4399876;32;20042;-54
2021/03/20 07:33:48;;;;;;;0.40;0.40;;;1.60;99.90;;;;;;4414317;32;20069;-56
2021/03/20 07:36:26;;;;;;;0.43;0.43;;;1.60;99.90;;;;;;4400497;32;20110;-57
2021/03/20 07:39:20;;;;;;;0.37;0.37;;;1.80;99.90;;;;;;4413372;32;20061;-57
2021/03/20 07:41:51;;;;;;;0.32;0.32;;;1.90;99.90;;;;;;4389958;32;20157;-55
2021/03/20 07:44:17;;;;;;;0.50;0.50;;;1.90;99.90;;;;;;4399534;32;20073;-54
2021/03/20 07:46:44;;;;;;;23.67;2.45;;;2.00;99.90;;;;;;4399704;32;20121;-57
2021/03/20 07:49:29;;;;;;;0.40;0.40;;;2.00;99.90;;;;;;4400477;32;20062;-55
2021/03/20 07:52:01;;;;;;;0.35;0.35;;;2.10;99.90;;;;;;4401209;32;20067;-57
2021/03/20 07:54:30;;;;;;;4.82;0.93;;;2.30;99.90;;;;;;4399988;32;20582;-56
2021/03/20 07:57:11;;;;;;;0.40;0.40;;;2.20;99.90;;;;;;4386919;32;20058;-55
2021/03/20 07:59:46;;;;;;;0.40;0.40;;;2.20;99.90;;;;;;4414119;32;20074;-57
2021/03/20 08:02:31;;;;;;;0.65;0.60;;;2.10;99.90;;;;;;4412484;32;20058;-56
2021/03/20 08:04:59;;;;;;;2.55;1.02;;;2.30;99.90;;;;;;4413759;32;20065;-57
2021/03/20 08:07:30;;;;;;;0.30;0.30;;;2.50;99.90;;;;;;4413050;32;20121;-55
2021/03/20 08:10:12;;;;;;;;;;;2.60;99.90;;;;;;4387916;32;20101;-54
2021/03/20 08:12:59;;;;;;;0.40;0.40;;;2.70;99.90;;;;;;4405898;32;20024;-55
2021/03/20 08:15:32;;;;;;;3.67;0.82;;;2.80;99.90;;;;;;4387883;32;20062;-56
2021/03/20 08:18:04;;;;;;;0.30;0.30;;;2.90;99.90;;;;;;4387040;32;20077;-52
2021/03/20 08:20:30;;;;;;;0.30;0.30;;;2.90;99.90;;;;;;4386006;32;20070;-56
2021/03/20 08:23:04;;;;;;;0.47;0.47;;;3.00;99.90;;;;;;4404976;32;20081;-57
2021/03/20 08:25:53;;;;;;;0.30;0.30;;;3.10;99.90;;;;;;4386910;32;20083;-55
2021/03/20 08:28:39;;;;;;;0.32;0.32;;;3.00;99.90;;;;;;4411302;32;20073;-57
2021/03/20 08:31:14;;;;;;;0.30;0.30;;;3.00;99.90;;;;;;4413205;32;20077;-54
2021/03/20 08:33:56;;;;;;;0.30;0.30;;;3.00;99.90;;;;;;4394959;32;20058;-56
2021/03/20 08:37:01;;;;;;;0.35;0.35;;;3.10;99.90;;;;;;4388662;32;20550;-56
2021/03/20 08:39:52;;;;;;;0.50;0.50;;;3.10;99.90;;;;;;4393244;32;20097;-58
2021/03/20 08:42:27;;;;;;;0.30;0.30;;;3.20;99.90;;;;;;4414214;32;20401;-54
2021/03/20 08:45:16;;;;;;;0.40;0.40;;;3.30;99.90;;;;;;4413282;32;20061;-57
2021/03/20 08:47:51;;;;;;;0.30;0.30;;;3.50;99.90;;;;;;4402796;32;20078;-54
2021/03/20 08:50:27;;;;;;;0.30;0.30;;;3.50;99.90;;;;;;4413464;32;20083;-55
2021/03/20 08:53:17;;;;;;;0.70;0.70;;;3.60;99.90;;;;;;4412111;32;20082;-57
2021/03/20 08:56:09;;;;;;;0.30;0.30;;;3.70;99.90;;;;;;4393690;32;20058;-56
2021/03/20 08:58:52;;;;;;;0.30;0.30;;;3.80;99.90;;;;;;4401860;32;20070;-58
2021/03/20 09:01:25;;;;;;;1.95;0.73;;;4.00;99.90;;;;;;4411139;32;20399;-54
2021/03/20 09:03:54;;;;;;;0.40;0.40;;;3.90;99.90;;;;;;4399337;32;20125;-58
2021/03/20 09:06:29;;;;;;;0.45;0.45;;;4.00;99.90;;;;;;4399542;32;20448;-57
2021/03/20 09:08:59;;;;;;;1.08;0.75;;;3.80;99.90;;;;;;4384083;32;20065;-55
2021/03/20 09:11:31;;;;;;;0.40;0.40;;;3.80;99.80;;;;;;4412061;32;20069;-57
2021/03/20 09:14:03;;;;;;;0.40;0.40;;;4.00;98.80;;;;;;4396502;32;20086;-56
2021/03/20 09:16:38;;;;;;;0.30;0.30;;;3.90;99.30;;;;;;4412352;32;20090;-57
2021/03/20 09:19:07;;;;;;;0.30;0.30;;;3.70;98.80;;;;;;4399502;32;20132;-56
2021/03/20 09:21:36;;;;;;;0.40;0.40;;;3.80;98.80;;;;;;4398510;32;20139;-56
2021/03/20 09:24:15;;;;;;;0.30;0.30;;;3.90;99.50;;;;;;4413117;32;20463;-56
2021/03/20 09:26:48;;;;;;;0.73;0.73;;;4.10;99.80;;;;;;4386623;32;20054;-57
2021/03/20 09:29:18;;;;;;;0.40;0.40;;;4.20;99.90;;;;;;4412571;32;20070;-56
2021/03/20 09:31:56;;;;;;;0.40;0.40;;;4.40;99.30;;;;;;4398589;32;20082;-57
2021/03/20 09:34:46;;;;;;;0.30;0.30;;;4.50;98.70;;;;;;4399916;32;20139;-56
2021/03/20 09:37:22;;;;;;;0.40;0.40;;;4.40;97.50;;;;;;4402142;32;20066;-58
2021/03/20 09:39:56;;;;;;;0.40;0.40;;;4.70;99.50;;;;;;4413583;32;20065;-55
2021/03/20 09:42:27;;;;;;;0.40;0.40;;;4.70;96.30;;;;;;4400323;32;20077;-56
2021/03/20 09:44:56;;;;;;;0.43;0.43;;;4.50;97.00;;;;;;4414649;32;20049;-57
2021/03/20 09:47:34;;;;;;;0.30;0.30;;;4.20;96.80;;;;;;4413768;32;20078;-54
2021/03/20 09:50:06;;;;;;;0.40;0.40;;;4.40;98.00;;;;;;4398812;32;20070;-55
2021/03/20 09:52:38;;;;;;;0.30;0.30;;;4.60;96.60;;;;;;4388247;32;20077;-56
2021/03/20 09:55:32;;;;;;;0.30;0.30;;;4.40;94.50;;;;;;4399925;32;20077;-56
2021/03/20 09:58:00;;;;;;;0.40;0.40;;;4.30;95.50;;;;;;4403456;32;20073;-57
2021/03/20 10:00:47;;;;;;;0.50;0.50;;;4.30;93.80;;;;;;4398495;32;20113;-53
2021/03/20 10:03:42;;;;;;;0.30;0.30;;;4.20;93.20;;;;;;4402248;32;20082;-54
2021/03/20 10:06:14;;;;;;;0.40;0.40;;;4.30;95.00;;;;;;4391099;32;20062;-57
2021/03/20 10:08:44;;;;;;;0.30;0.30;;;4.40;96.90;;;;;;4406061;32;20073;-56
2021/03/20 10:11:31;;;;;;;0.30;0.30;;;4.60;96.50;;;;;;4394926;32;20074;-56
2021/03/20 10:13:57;;;;;;;0.40;0.40;;;4.60;93.70;;;;;;4396619;32;20070;-55
2021/03/20 10:16:27;;;;;;;0.37;0.37;;;4.60;93.50;;;;;;4385455;32;20086;-56
2021/03/20 10:19:12;;;;;;;0.30;0.30;;;4.70;93.10;;;;;;4399224;32;20078;-55
2021/03/20 10:21:41;;;;;;;0.40;0.40;;;4.60;91.90;;;;;;4387592;32;20058;-56
2021/03/20 10:24:26;;;;;;;18.45;0.80;;;4.60;92.60;;;;;;4413746;32;20484;-56
2021/03/20 10:27:03;;;;;;;0.32;0.32;;;4.80;92.10;;;;;;4402193;32;20090;-58
2021/03/20 10:29:33;;;;;;;0.60;0.60;;;5.10;94.90;;;;;;4400715;32;20505;-53
2021/03/20 10:32:16;;;;;;;0.30;0.30;;;5.30;91.50;;;;;;4388317;32;20066;-57
2021/03/20 10:34:45;;;;;;;0.30;0.30;;;5.40;91.90;;;;;;4412962;32;20124;-55
2021/03/20 10:37:13;;;;;;;0.30;0.30;;;5.20;91.60;;;;;;4414150;32;20086;-55
2021/03/20 10:39:43;;;;;;;0.30;0.30;;;5.30;91.70;;;;;;4388085;32;20104;-53
2021/03/20 10:42:15;;;;;;;0.55;0.55;;;5.50;91.50;;;;;;4402015;32;20109;-57
2021/03/20 10:44:44;;;;;;;0.50;0.50;;;5.50;89.20;;;;;;4412218;32;123271;-55
2021/03/20 10:47:20;;;;;;;0.40;0.40;;;5.30;88.70;;;;;;4402750;32;20087;-56
2021/03/20 10:50:06;;;;;;;0.40;0.40;;;5.40;89.60;;;;;;4416568;32;20061;-53
2021/03/20 10:52:37;;;;;;;0.62;0.62;;;5.50;89.50;;;;;;4415982;32;20106;-56
2021/03/20 10:55:16;;;;;;;0.30;0.30;;;5.70;90.00;;;;;;4416677;32;20189;-57
2021/03/20 10:57:41;;;;;;;0.95;0.90;;;5.90;87.50;;;;;;4414186;32;20468;-56
2021/03/20 11:00:29;;;;;;;0.40;0.40;;;5.70;87.50;;;;;;4415371;32;20054;-56
2021/03/20 11:03:19;;;;;;;0.73;0.73;;;5.50;85.00;;;;;;4405254;32;20066;-57
2021/03/20 11:05:44;;;;;;;0.30;0.30;;;5.60;88.00;;;;;;4392201;32;20443;-53
2021/03/20 11:08:24;;;;;;;0.40;0.40;;;5.70;82.50;;;;;;4401530;32;20139;-57
2021/03/20 11:10:53;;;;;;;0.30;0.30;;;5.90;85.80;;;;;;4401683;32;20053;-57
2021/03/20 11:13:29;;;;;;;0.37;0.37;;;6.10;84.20;;;;;;4415312;32;20522;-56
2021/03/20 11:16:05;;;;;;;0.40;0.40;;;6.00;82.10;;;;;;4390249;32;20205;-55
2021/03/20 11:18:37;;;;;;;0.40;0.40;;;6.00;88.10;;;;;;4402626;32;20125;-55
2021/03/20 11:21:16;;;;;;;0.30;0.30;;;5.90;83.30;;;;;;4401375;32;20179;-56
2021/03/20 11:23:41;;;;;;;0.32;0.32;;;5.90;81.60;;;;;;4414008;32;20089;-55
2021/03/20 11:26:27;;;;;;;0.40;0.40;;;6.10;81.20;;;;;;4414446;32;20103;-56
2021/03/20 11:28:53;;;;;;;0.40;0.40;;;6.40;84.10;;;;;;4398718;32;20081;-55
2021/03/20 11:31:22;;;;;;;0.30;0.30;;;6.70;77.90;;;;;;4414423;32;20975;-56
2021/03/20 11:33:48;;;;;;;0.30;0.30;;;6.90;76.00;;;;;;4413518;32;20082;-57
2021/03/20 11:36:18;;;;;;;0.30;0.30;;;6.70;74.50;;;;;;4414773;32;20090;-57
2021/03/20 11:38:46;;;;;;;0.40;0.40;;;6.60;75.50;;;;;;4414534;32;20054;-57
2021/03/20 11:41:14;;;;;;;0.40;0.40;;;6.70;76.90;;;;;;4411608;32;20081;-54
2021/03/20 11:43:45;;;;;;;0.40;0.40;;;6.80;75.60;;;;;;4414344;32;20085;-57
2021/03/20 11:46:16;;;;;;;0.37;0.37;;;7.00;75.70;;;;;;4415615;32;20089;-56
2021/03/20 11:48:51;;;;;;;0.65;0.65;;;6.90;75.40;;;;;;4399623;32;20065;-57
2021/03/20 11:51:28;;;;;;;0.40;0.40;;;6.90;74.30;;;;;;4401701;32;20061;-54
2021/03/20 11:53:59;;;;;;;0.40;0.40;;;6.70;72.20;;;;;;4387402;32;20116;-58
2021/03/20 11:56:31;;;;;;;0.40;0.40;;;6.40;74.60;;;;;;4387265;32;20461;-56
2021/03/20 11:59:00;;;;;;;7.87;0.93;;;6.60;77.50;;;;;;4414529;32;20607;-57
2021/03/20 12:01:35;;;;;;;0.30;0.30;;;6.80;75.60;;;;;;4388569;32;20518;-56
2021/03/20 12:04:20;;;;;;;0.50;0.50;;;6.70;73.90;;;;;;4415344;32;20069;-56
2021/03/20 12:06:46;;;;;;;0.30;0.30;;;6.70;72.50;;;;;;4414275;32;20541;-56
2021/03/20 12:09:32;;;;;;;0.30;0.30;;;6.70;73.50;;;;;;4400254;32;20155;-58
2021/03/20 12:11:58;;;;;;;0.35;0.35;;;7.00;72.90;;;;;;4414343;32;20069;-57
2021/03/20 12:14:28;;;;;;;0.32;0.32;;;7.40;73.70;;;;;;4399588;32;20619;-57
2021/03/20 12:17:11;;;;;;;0.40;0.40;;;7.60;69.70;;;;;;4399422;32;20073;-55
2021/03/20 12:19:54;;;;;;;0.37;0.37;;;7.70;71.10;;;;;;4399673;32;20146;-54
2021/03/20 12:22:46;;;;;;;0.37;0.37;;;7.60;69.30;;;;;;4399548;32;20093;-57
2021/03/20 12:25:35;;;;;;;0.30;0.30;;;7.90;70.30;;;;;;4389082;32;20622;-54
2021/03/20 12:28:25;;;;;;;0.30;0.30;;;8.00;68.80;;;;;;4402803;32;20089;-55
2021/03/20 12:31:24;;;;;;;0.30;0.30;;;7.70;66.90;;;;;;4402805;32;20081;-52
2021/03/20 12:33:55;;;;;;;0.37;0.37;;;7.60;66.60;;;;;;4404619;32;20090;-57
2021/03/20 12:36:41;;;;;;;0.45;0.45;;;7.80;65.40;;;;;;4400846;32;20095;-55
2021/03/20 12:39:10;;;;;;;0.28;0.28;;;8.00;66.50;;;;;;4400256;32;20117;-55
2021/03/20 12:41:36;;;;;;;0.40;0.40;;;8.10;65.50;;;;;;4400527;32;20091;-54
2021/03/20 12:44:06;;;;;;;0.30;0.30;;;7.90;63.90;;;;;;4413264;32;20061;-56
2021/03/20 12:46:32;;;;;;;0.30;0.30;;;7.10;66.60;;;;;;4414267;32;20074;-56
2021/03/20 12:48:58;;;;;;;0.30;0.30;;;6.90;68.90;;;;;;4414102;32;20054;-54
2021/03/20 12:51:24;;;;;;;0.40;0.40;;;7.00;69.00;;;;;;4412056;32;20053;-55
2021/03/20 12:53:49;;;;;;;0.40;0.40;;;7.10;69.30;;;;;;4413565;32;20067;-55
2021/03/20 12:56:15;;;;;;;4.78;1.10;;;6.90;68.90;;;;;;4413260;32;20596;-55
2021/03/20 12:58:41;;;;;;;3.92;0.50;;;6.60;70.40;;;;;;4414067;32;20516;-51
2021/03/20 13:01:10;;;;;;;0.30;0.30;;;6.70;71.60;;;;;;4413267;32;20070;-58
2021/03/20 13:03:36;;;;;;;1.87;1.37;;;6.30;70.10;;;;;;4412280;32;20097;-58
2021/03/20 13:06:02;;;;;;;0.40;0.40;;;6.40;70.60;;;;;;4412773;32;20183;-57
2021/03/20 13:08:28;;;;;;;0.40;0.40;;;6.20;71.20;;;;;;4399451;32;20078;-53
2021/03/20 13:10:53;;;;;;;0.35;0.35;;;5.60;74.10;;;;;;4413254;32;20515;-57
2021/03/20 13:13:20;;;;;;;1.48;0.70;;;5.70;76.10;;;;;;4412928;32;20581;-57
2021/03/20 13:15:45;;;;;;;0.37;0.37;;;5.60;75.30;;;;;;4414224;32;20286;-54
2021/03/20 13:18:11;;;;;;;0.40;0.40;;;5.60;75.40;;;;;;4414159;32;20061;-52
2021/03/20 13:20:37;;;;;;;2.55;0.50;;;5.90;80.40;;;;;;4412989;32;20515;-55
2021/03/20 13:23:02;;;;;;;0.30;0.30;;;6.20;76.40;;;;;;4413246;32;20077;-54
2021/03/20 13:25:32;;;;;;;0.35;0.35;;;6.10;75.50;;;;;;4412999;32;20085;-58
2021/03/20 13:27:58;;;;;;;0.30;0.30;;;6.10;76.50;;;;;;4387797;32;20066;-54
2021/03/20 13:30:34;;;;;;;0.30;0.30;;;6.20;75.40;;;;;;4399576;32;20074;-52
2021/03/20 13:33:00;;;;;;;0.30;0.30;;;6.10;73.60;;;;;;4403162;32;20074;-53
2021/03/20 13:35:28;;;;;;;0.88;0.85;;;6.00;73.70;;;;;;4412660;32;20090;-54